»·PEaware :: N713AG KRIV-KBFL

N713AG :: KRIV-KBFL

FLIGHT INFORMATION

Flight Status: Arrived
Operator: Privately registered:
United States
More flights under this callsign
Pilot: Charles S. (11412)
Aircraft: SOCATA TBM-900
(TBM9)
More flights by this aircraft type
Origin: KRIV March ARB
United States
Destination: KBFL Meadows
United States
More flights between these airports :: More routes between these airports
Route: +PDZ V197 PMD FASTO2
File this flight plan on PilotEdge
Remarks:
Altitude:
(Current/Filed)
12,000ft
Speed:
(Current/Filed)
245kts
Departed: 23-Oct-18 03:05 PM
Arrived: 23-Oct-18 03:53 PM
Distance/Time
Traveled:
128nm/0:47
Distance/Time
To Go:
Arrived

Flight Plot

Page will automatically refresh every two minutes.

Flight plan parsing failed; only flown route is shown


Map Options




Map Legend


Flown Route
Filed Route
Departure Airport
Arrival Airport
Navaid (VOR, NDB)
Fix

Horizontal Profiles

Position Reports

Time Latitude Longitude Heading Altitude Ground
Speed
23-Oct-18 14:51 33.887985 -117.248115 126 1502ft 0kts
23-Oct-18 14:52 33.887985 -117.248115 126 1502ft 0kts
23-Oct-18 14:53 33.887985 -117.248115 126 1502ft 0kts
23-Oct-18 14:54 33.887985 -117.248115 126 1502ft 0kts
23-Oct-18 14:55 33.887985 -117.248115 126 1502ft 0kts
23-Oct-18 14:56 33.887985 -117.248115 126 1502ft 0kts
23-Oct-18 14:57 33.887985 -117.248115 126 1502ft 0kts
23-Oct-18 14:58 33.887985 -117.248115 126 1502ft 0kts
23-Oct-18 14:59 33.887985 -117.248115 126 1502ft 0kts
23-Oct-18 15:00 33.887985 -117.248115 126 1502ft 0kts
23-Oct-18 15:01 33.887962 -117.248086 141 1502ft 4kts
23-Oct-18 15:02 33.885845 -117.250213 223 1503ft 23kts
23-Oct-18 15:03 33.881218 -117.248752 208 1495ft 32kts
23-Oct-18 15:04 33.874223 -117.251389 152 1492ft 29kts
23-Oct-18 15:05 33.867360 -117.246900 152 1483ft 32kts
23-Oct-18 15:06 33.865150 -117.246549 260 1483ft 0kts
23-Oct-18 15:07 33.866477 -117.249313 329 1483ft 43kts
23-Oct-18 15:08 33.888901 -117.265732 325 1978ft 146kts
23-Oct-18 15:09 33.923943 -117.291547 326 3581ft 173kts
23-Oct-18 15:10 33.961581 -117.320300 326 5052ft 186kts
23-Oct-18 15:11 33.998875 -117.349691 326 6597ft 184kts
23-Oct-18 15:12 34.033441 -117.377337 326 8047ft 181kts
23-Oct-18 15:13 34.063446 -117.401529 326 9013ft 194kts
23-Oct-18 15:14 34.098624 -117.438004 285 8985ft 235kts
23-Oct-18 15:15 34.100157 -117.512637 271 8991ft 246kts
23-Oct-18 15:16 34.100916 -117.594016 272 8993ft 249kts
23-Oct-18 15:17 34.101709 -117.675414 271 8998ft 249kts
23-Oct-18 15:18 34.127756 -117.740120 305 9760ft 221kts
23-Oct-18 15:19 34.156909 -117.795823 301 10996ft 206kts
23-Oct-18 15:20 34.189914 -117.842274 338 12035ft 207kts
23-Oct-18 15:21 34.243656 -117.869270 337 12015ft 237kts
23-Oct-18 15:22 34.298634 -117.896803 337 12009ft 245kts
23-Oct-18 15:23 34.357702 -117.926355 337 11976ft 247kts
23-Oct-18 15:24 34.414584 -117.954844 337 11968ft 248kts
23-Oct-18 15:25 34.471612 -117.983451 337 11983ft 248kts
23-Oct-18 15:26 34.530044 -118.012804 337 11995ft 247kts
23-Oct-18 15:27 34.587852 -118.041892 337 11999ft 248kts
23-Oct-18 15:28 34.642050 -118.077979 314 12014ft 247kts
23-Oct-18 15:29 34.687158 -118.136250 313 11998ft 249kts
23-Oct-18 15:30 34.732751 -118.195563 313 11995ft 249kts
23-Oct-18 15:31 34.776293 -118.252316 313 11998ft 248kts
23-Oct-18 15:32 34.819828 -118.309157 313 11989ft 249kts
23-Oct-18 15:33 34.863332 -118.366044 313 12006ft 259kts
23-Oct-18 15:34 34.906847 -118.423048 313 12034ft 262kts
23-Oct-18 15:35 34.951634 -118.481801 313 12060ft 262kts
23-Oct-18 15:36 34.996485 -118.540752 312 12106ft 261kts
23-Oct-18 15:37 35.037877 -118.604866 302 11881ft 259kts
23-Oct-18 15:38 35.053445 -118.676433 271 10597ft 244kts
23-Oct-18 15:39 35.056489 -118.752948 271 9284ft 239kts
23-Oct-18 15:40 35.059367 -118.830214 272 7942ft 235kts
23-Oct-18 15:41 35.061793 -118.906623 272 6568ft 224kts
23-Oct-18 15:42 35.063802 -118.978322 272 5212ft 217kts
23-Oct-18 15:43 35.093304 -119.025680 15 4511ft 242kts
23-Oct-18 15:44 35.147638 -118.983167 32 4493ft 216kts
23-Oct-18 15:45 35.186281 -118.941344 52 4026ft 185kts
23-Oct-18 15:46 35.216030 -118.892261 51 2563ft 189kts
23-Oct-18 15:47 35.253453 -118.862003 342 3054ft 200kts
23-Oct-18 15:48 35.296166 -118.889463 313 2987ft 159kts
23-Oct-18 15:49 35.325186 -118.924910 314 3019ft 153kts
23-Oct-18 15:50 35.352969 -118.958712 314 2629ft 111kts
23-Oct-18 15:51 35.375497 -118.986020 314 2006ft 109kts
23-Oct-18 15:52 35.393908 -119.008262 314 1533ft 93kts
23-Oct-18 15:53 35.412066 -119.030152 314 1051ft 93kts
23-Oct-18 15:54 35.430155 -119.051751 313 552ft 85kts
23-Oct-18 15:55 35.437748 -119.058676 134 495ft 22kts
23-Oct-18 15:56 35.433321 -119.053355 135 492ft 19kts
23-Oct-18 15:57 35.429228 -119.046677 33 492ft 16kts
23-Oct-18 15:58 35.429303 -119.046522 81 493ft 0kts
23-Oct-18 15:59 35.429303 -119.046522 81 493ft 0kts
23-Oct-18 16:00 35.429303 -119.046523 81 493ft 0kts
23-Oct-18 16:01 35.429303 -119.046522 81 493ft 0kts
23-Oct-18 16:02 35.429303 -119.046522 81 493ft 0kts
23-Oct-18 16:03 35.429303 -119.046522 81 493ft 0kts
23-Oct-18 16:04 35.429303 -119.046522 81 493ft 0kts
23-Oct-18 16:05 35.429303 -119.046522 81 493ft 0kts
23-Oct-18 16:06 35.429303 -119.046522 81 493ft 0kts
23-Oct-18 16:07 35.429303 -119.046522 81 493ft 0kts
23-Oct-18 16:08 35.429303 -119.046522 81 493ft 0kts
23-Oct-18 16:09 35.429303 -119.046522 81 493ft 0kts

Navigation Log

Ident Type
Flight plan parsing failed, navigation log unavailable